sensor_id;sensor_type;location;lat;lon;timestamp;temperature;humidity
2893;DHT22;1456;51.840;12.184;2022-07-29T00:00:07;17.00;90.60
2893;DHT22;1456;51.840;12.184;2022-07-29T00:02:33;17.10;90.90
2893;DHT22;1456;51.840;12.184;2022-07-29T00:04:59;17.10;91.10
2893;DHT22;1456;51.840;12.184;2022-07-29T00:07:25;17.10;90.80
2893;DHT22;1456;51.840;12.184;2022-07-29T00:09:50;17.10;90.10
2893;DHT22;1456;51.840;12.184;2022-07-29T00:12:16;17.20;90.80
2893;DHT22;1456;51.840;12.184;2022-07-29T00:14:42;17.20;90.40
2893;DHT22;1456;51.840;12.184;2022-07-29T00:17:09;17.30;90.70
2893;DHT22;1456;51.840;12.184;2022-07-29T00:19:34;17.30;90.50
2893;DHT22;1456;51.840;12.184;2022-07-29T00:22:00;17.40;90.10
2893;DHT22;1456;51.840;12.184;2022-07-29T00:24:26;17.40;90.60
2893;DHT22;1456;51.840;12.184;2022-07-29T00:26:52;17.40;90.20
2893;DHT22;1456;51.840;12.184;2022-07-29T00:29:18;17.50;90.10
2893;DHT22;1456;51.840;12.184;2022-07-29T00:31:45;17.60;90.70
2893;DHT22;1456;51.840;12.184;2022-07-29T00:34:10;17.60;89.40
2893;DHT22;1456;51.840;12.184;2022-07-29T00:36:55;17.60;89.60
2893;DHT22;1456;51.840;12.184;2022-07-29T00:39:20;17.60;89.80
2893;DHT22;1456;51.840;12.184;2022-07-29T00:41:46;17.60;89.70
2893;DHT22;1456;51.840;12.184;2022-07-29T00:44:12;17.60;89.50
2893;DHT22;1456;51.840;12.184;2022-07-29T00:46:37;17.60;89.00
2893;DHT22;1456;51.840;12.184;2022-07-29T00:49:03;17.60;90.00
2893;DHT22;1456;51.840;12.184;2022-07-29T00:51:30;17.50;90.10
2893;DHT22;1456;51.840;12.184;2022-07-29T00:53:56;17.50;90.20
2893;DHT22;1456;51.840;12.184;2022-07-29T00:56:22;17.50;90.10
2893;DHT22;1456;51.840;12.184;2022-07-29T00:58:48;17.50;90.10
2893;DHT22;1456;51.840;12.184;2022-07-29T01:01:16;17.50;90.60
2893;DHT22;1456;51.840;12.184;2022-07-29T01:03:42;17.50;90.30
2893;DHT22;1456;51.840;12.184;2022-07-29T01:06:09;17.60;90.30
2893;DHT22;1456;51.840;12.184;2022-07-29T01:08:36;17.50;90.50
2893;DHT22;1456;51.840;12.184;2022-07-29T01:11:02;17.60;90.90
2893;DHT22;1456;51.840;12.184;2022-07-29T01:13:30;17.50;90.90
2893;DHT22;1456;51.840;12.184;2022-07-29T01:16:25;17.50;90.10
2893;DHT22;1456;51.840;12.184;2022-07-29T01:18:58;17.50;90.40
2893;DHT22;1456;51.840;12.184;2022-07-29T01:21:53;17.50;91.00
2893;DHT22;1456;51.840;12.184;2022-07-29T01:27:38;17.50;91.10
2893;DHT22;1456;51.840;12.184;2022-07-29T01:30:05;17.50;91.20
2893;DHT22;1456;51.840;12.184;2022-07-29T01:32:34;17.50;91.60
2893;DHT22;1456;51.840;12.184;2022-07-29T01:35:19;17.50;92.30
2893;DHT22;1456;51.840;12.184;2022-07-29T01:40:49;17.60;93.00
2893;DHT22;1456;51.840;12.184;2022-07-29T01:43:21;17.60;92.80
2893;DHT22;1456;51.840;12.184;2022-07-29T01:45:57;17.60;93.60
2893;DHT22;1456;51.840;12.184;2022-07-29T01:48:43;17.50;93.90
2893;DHT22;1456;51.840;12.184;2022-07-29T01:52:20;17.50;93.50
2893;DHT22;1456;51.840;12.184;2022-07-29T01:54:39;17.40;93.90
2893;DHT22;1456;51.840;12.184;2022-07-29T01:57:11;17.30;92.60
2893;DHT22;1456;51.840;12.184;2022-07-29T01:59:38;17.30;93.50
2893;DHT22;1456;51.840;12.184;2022-07-29T02:02:07;17.20;92.70
2893;DHT22;1456;51.840;12.184;2022-07-29T02:04:35;17.20;93.40
2893;DHT22;1456;51.840;12.184;2022-07-29T02:07:04;17.10;95.80
2893;DHT22;1456;51.840;12.184;2022-07-29T02:09:34;17.10;95.10
2893;DHT22;1456;51.840;12.184;2022-07-29T02:12:02;17.00;93.80
2893;DHT22;1456;51.840;12.184;2022-07-29T02:14:36;16.90;93.20
2893;DHT22;1456;51.840;12.184;2022-07-29T02:17:02;16.90;94.40
2893;DHT22;1456;51.840;12.184;2022-07-29T02:19:29;16.80;94.20
2893;DHT22;1456;51.840;12.184;2022-07-29T02:21:58;16.80;96.00
2893;DHT22;1456;51.840;12.184;2022-07-29T02:24:26;16.80;94.90
2893;DHT22;1456;51.840;12.184;2022-07-29T02:26:55;16.80;93.80
2893;DHT22;1456;51.840;12.184;2022-07-29T02:29:25;16.80;94.90
2893;DHT22;1456;51.840;12.184;2022-07-29T02:31:52;16.80;96.70
2893;DHT22;1456;51.840;12.184;2022-07-29T02:34:20;16.80;95.30
2893;DHT22;1456;51.840;12.184;2022-07-29T02:36:46;16.80;96.10
2893;DHT22;1456;51.840;12.184;2022-07-29T02:39:15;16.80;95.20
2893;DHT22;1456;51.840;12.184;2022-07-29T02:41:47;16.80;96.60
2893;DHT22;1456;51.840;12.184;2022-07-29T02:44:18;16.80;94.80
2893;DHT22;1456;51.840;12.184;2022-07-29T02:52:12;16.90;95.40
2893;DHT22;1456;51.840;12.184;2022-07-29T02:54:58;17.00;95.90
2893;DHT22;1456;51.840;12.184;2022-07-29T02:59:58;17.00;94.50
2893;DHT22;1456;51.840;12.184;2022-07-29T03:02:26;17.00;94.90
2893;DHT22;1456;51.840;12.184;2022-07-29T03:04:52;17.00;94.70
2893;DHT22;1456;51.840;12.184;2022-07-29T03:07:21;17.00;95.40
2893;DHT22;1456;51.840;12.184;2022-07-29T03:09:49;17.00;95.70
2893;DHT22;1456;51.840;12.184;2022-07-29T03:12:16;17.00;96.00
2893;DHT22;1456;51.840;12.184;2022-07-29T03:14:43;16.90;95.50
2893;DHT22;1456;51.840;12.184;2022-07-29T03:17:09;16.90;95.60
2893;DHT22;1456;51.840;12.184;2022-07-29T03:19:35;16.90;95.80
2893;DHT22;1456;51.840;12.184;2022-07-29T03:22:01;16.90;95.80
2893;DHT22;1456;51.840;12.184;2022-07-29T03:24:36;16.90;96.10
2893;DHT22;1456;51.840;12.184;2022-07-29T03:27:04;16.90;96.10
2893;DHT22;1456;51.840;12.184;2022-07-29T03:29:31;16.90;95.60
2893;DHT22;1456;51.840;12.184;2022-07-29T03:31:57;16.90;97.00
2893;DHT22;1456;51.840;12.184;2022-07-29T03:34:22;16.90;96.70
2893;DHT22;1456;51.840;12.184;2022-07-29T03:36:48;16.90;96.90
2893;DHT22;1456;51.840;12.184;2022-07-29T03:39:18;17.00;97.00
2893;DHT22;1456;51.840;12.184;2022-07-29T03:41:48;17.00;96.30
2893;DHT22;1456;51.840;12.184;2022-07-29T03:44:16;16.90;97.50
2893;DHT22;1456;51.840;12.184;2022-07-29T03:46:44;16.90;97.20
2893;DHT22;1456;51.840;12.184;2022-07-29T03:49:12;17.00;96.60
2893;DHT22;1456;51.840;12.184;2022-07-29T03:51:40;17.00;96.70
2893;DHT22;1456;51.840;12.184;2022-07-29T03:54:06;16.90;95.60
2893;DHT22;1456;51.840;12.184;2022-07-29T03:56:34;16.90;95.80
2893;DHT22;1456;51.840;12.184;2022-07-29T03:59:02;16.90;96.00
2893;DHT22;1456;51.840;12.184;2022-07-29T04:01:29;16.90;97.30
2893;DHT22;1456;51.840;12.184;2022-07-29T04:03:55;16.90;97.60
2893;DHT22;1456;51.840;12.184;2022-07-29T04:06:21;16.90;97.40
2893;DHT22;1456;51.840;12.184;2022-07-29T04:08:47;16.90;97.80
2893;DHT22;1456;51.840;12.184;2022-07-29T04:11:13;16.90;97.50
2893;DHT22;1456;51.840;12.184;2022-07-29T04:13:39;16.90;96.60
2893;DHT22;1456;51.840;12.184;2022-07-29T04:16:04;17.00;97.50
2893;DHT22;1456;51.840;12.184;2022-07-29T04:18:30;17.00;96.20
2893;DHT22;1456;51.840;12.184;2022-07-29T04:20:56;17.00;96.00
2893;DHT22;1456;51.840;12.184;2022-07-29T04:23:25;17.10;95.60
2893;DHT22;1456;51.840;12.184;2022-07-29T04:25:51;17.10;95.50
2893;DHT22;1456;51.840;12.184;2022-07-29T04:28:17;17.20;95.50
2893;DHT22;1456;51.840;12.184;2022-07-29T04:30:43;16.90;95.20
2893;DHT22;1456;51.840;12.184;2022-07-29T04:33:09;17.20;95.50
2893;DHT22;1456;51.840;12.184;2022-07-29T04:35:36;17.30;95.80
2893;DHT22;1456;51.840;12.184;2022-07-29T04:38:03;17.40;95.90
2893;DHT22;1456;51.840;12.184;2022-07-29T04:40:29;17.50;96.20
2893;DHT22;1456;51.840;12.184;2022-07-29T04:42:56;17.60;96.40
2893;DHT22;1456;51.840;12.184;2022-07-29T04:45:22;17.80;95.30
2893;DHT22;1456;51.840;12.184;2022-07-29T04:47:47;17.90;95.20
2893;DHT22;1456;51.840;12.184;2022-07-29T04:50:13;18.10;95.10
2893;DHT22;1456;51.840;12.184;2022-07-29T04:52:39;18.30;94.00
2893;DHT22;1456;51.840;12.184;2022-07-29T04:55:06;18.40;93.70
2893;DHT22;1456;51.840;12.184;2022-07-29T04:57:32;18.60;93.30
2893;DHT22;1456;51.840;12.184;2022-07-29T04:59:58;18.80;93.10
2893;DHT22;1456;51.840;12.184;2022-07-29T05:02:24;18.90;92.90
2893;DHT22;1456;51.840;12.184;2022-07-29T05:04:50;19.10;93.00
2893;DHT22;1456;51.840;12.184;2022-07-29T05:07:15;19.20;92.80
2893;DHT22;1456;51.840;12.184;2022-07-29T05:09:41;19.40;92.40
2893;DHT22;1456;51.840;12.184;2022-07-29T05:12:07;19.40;92.10
2893;DHT22;1456;51.840;12.184;2022-07-29T05:14:33;19.50;92.50
2893;DHT22;1456;51.840;12.184;2022-07-29T05:16:58;19.50;91.40
2893;DHT22;1456;51.840;12.184;2022-07-29T05:19:25;19.60;91.60
2893;DHT22;1456;51.840;12.184;2022-07-29T05:21:51;19.80;91.10
2893;DHT22;1456;51.840;12.184;2022-07-29T05:24:17;20.20;90.40
2893;DHT22;1456;51.840;12.184;2022-07-29T05:26:44;20.40;90.40
2893;DHT22;1456;51.840;12.184;2022-07-29T05:29:10;20.50;89.20
2893;DHT22;1456;51.840;12.184;2022-07-29T05:31:37;20.70;89.50
2893;DHT22;1456;51.840;12.184;2022-07-29T05:34:03;20.80;90.60
2893;DHT22;1456;51.840;12.184;2022-07-29T05:36:28;20.90;88.30
2893;DHT22;1456;51.840;12.184;2022-07-29T05:38:54;21.00;89.10
2893;DHT22;1456;51.840;12.184;2022-07-29T05:41:20;21.00;90.10
2893;DHT22;1456;51.840;12.184;2022-07-29T05:43:47;21.10;91.20
2893;DHT22;1456;51.840;12.184;2022-07-29T05:46:13;21.20;87.10
2893;DHT22;1456;51.840;12.184;2022-07-29T05:48:39;21.10;89.30
2893;DHT22;1456;51.840;12.184;2022-07-29T05:51:05;21.10;91.50
2893;DHT22;1456;51.840;12.184;2022-07-29T05:53:31;21.00;91.70
2893;DHT22;1456;51.840;12.184;2022-07-29T05:55:56;21.00;86.80
2893;DHT22;1456;51.840;12.184;2022-07-29T05:58:23;20.90;87.30
2893;DHT22;1456;51.840;12.184;2022-07-29T06:00:49;20.90;86.60
2893;DHT22;1456;51.840;12.184;2022-07-29T06:03:15;20.80;84.50
2893;DHT22;1456;51.840;12.184;2022-07-29T06:05:41;20.90;85.80
2893;DHT22;1456;51.840;12.184;2022-07-29T06:08:06;21.00;84.80
2893;DHT22;1456;51.840;12.184;2022-07-29T06:10:34;21.10;83.70
2893;DHT22;1456;51.840;12.184;2022-07-29T06:13:00;21.20;83.80
2893;DHT22;1456;51.840;12.184;2022-07-29T06:15:26;21.20;85.70
2893;DHT22;1456;51.840;12.184;2022-07-29T06:17:52;21.50;84.10
2893;DHT22;1456;51.840;12.184;2022-07-29T06:20:18;22.00;87.10
2893;DHT22;1456;51.840;12.184;2022-07-29T06:22:44;22.40;85.30
2893;DHT22;1456;51.840;12.184;2022-07-29T06:25:09;22.80;82.80
2893;DHT22;1456;51.840;12.184;2022-07-29T06:27:35;23.20;80.70
2893;DHT22;1456;51.840;12.184;2022-07-29T06:30:01;23.30;81.50
2893;DHT22;1456;51.840;12.184;2022-07-29T06:32:28;23.50;81.80
2893;DHT22;1456;51.840;12.184;2022-07-29T06:34:53;23.60;77.40
2893;DHT22;1456;51.840;12.184;2022-07-29T06:37:19;23.70;77.10
2893;DHT22;1456;51.840;12.184;2022-07-29T06:39:45;23.80;74.80
2893;DHT22;1456;51.840;12.184;2022-07-29T06:42:10;23.90;78.20
2893;DHT22;1456;51.840;12.184;2022-07-29T06:44:36;24.10;77.50
2893;DHT22;1456;51.840;12.184;2022-07-29T06:47:02;24.20;78.90
2893;DHT22;1456;51.840;12.184;2022-07-29T06:49:29;24.20;74.30
2893;DHT22;1456;51.840;12.184;2022-07-29T06:51:55;24.20;75.10
2893;DHT22;1456;51.840;12.184;2022-07-29T06:54:21;24.20;75.70
2893;DHT22;1456;51.840;12.184;2022-07-29T06:56:47;24.20;78.30
2893;DHT22;1456;51.840;12.184;2022-07-29T06:59:13;24.10;77.40
2893;DHT22;1456;51.840;12.184;2022-07-29T07:01:41;24.00;75.50
2893;DHT22;1456;51.840;12.184;2022-07-29T07:04:08;23.90;74.20
2893;DHT22;1456;51.840;12.184;2022-07-29T07:06:35;23.80;75.60
2893;DHT22;1456;51.840;12.184;2022-07-29T07:09:01;23.70;76.70
2893;DHT22;1456;51.840;12.184;2022-07-29T07:11:27;23.70;79.20
2893;DHT22;1456;51.840;12.184;2022-07-29T07:13:53;23.70;72.20
2893;DHT22;1456;51.840;12.184;2022-07-29T07:16:18;23.70;74.90
2893;DHT22;1456;51.840;12.184;2022-07-29T07:18:44;23.70;74.90
2893;DHT22;1456;51.840;12.184;2022-07-29T07:21:11;23.90;80.90
2893;DHT22;1456;51.840;12.184;2022-07-29T07:23:37;23.80;74.30
2893;DHT22;1456;51.840;12.184;2022-07-29T07:26:03;23.80;73.10
2893;DHT22;1456;51.840;12.184;2022-07-29T07:28:29;23.80;75.50
2893;DHT22;1456;51.840;12.184;2022-07-29T07:30:56;23.70;75.90
2893;DHT22;1456;51.840;12.184;2022-07-29T07:33:22;23.60;75.60
2893;DHT22;1456;51.840;12.184;2022-07-29T07:35:49;23.50;77.10
2893;DHT22;1456;51.840;12.184;2022-07-29T07:38:14;23.50;80.50
2893;DHT22;1456;51.840;12.184;2022-07-29T07:40:40;23.50;77.30
2893;DHT22;1456;51.840;12.184;2022-07-29T07:43:06;23.50;79.40
2893;DHT22;1456;51.840;12.184;2022-07-29T07:45:32;23.60;76.50
2893;DHT22;1456;51.840;12.184;2022-07-29T07:47:59;23.80;74.40
2893;DHT22;1456;51.840;12.184;2022-07-29T07:50:25;24.10;72.20
2893;DHT22;1456;51.840;12.184;2022-07-29T07:52:53;24.20;71.00
2893;DHT22;1456;51.840;12.184;2022-07-29T07:55:20;24.60;74.60
2893;DHT22;1456;51.840;12.184;2022-07-29T07:57:46;24.90;77.10
2893;DHT22;1456;51.840;12.184;2022-07-29T08:00:13;25.10;74.20
2893;DHT22;1456;51.840;12.184;2022-07-29T08:02:39;25.50;72.60
2893;DHT22;1456;51.840;12.184;2022-07-29T08:05:06;25.80;72.10
2893;DHT22;1456;51.840;12.184;2022-07-29T08:07:33;26.00;70.40
2893;DHT22;1456;51.840;12.184;2022-07-29T08:09:58;26.20;70.90
2893;DHT22;1456;51.840;12.184;2022-07-29T08:12:24;26.40;67.50
2893;DHT22;1456;51.840;12.184;2022-07-29T08:14:50;26.40;65.40
2893;DHT22;1456;51.840;12.184;2022-07-29T08:17:15;26.30;64.70
2893;DHT22;1456;51.840;12.184;2022-07-29T08:19:41;26.10;70.10
2893;DHT22;1456;51.840;12.184;2022-07-29T08:22:07;26.10;71.00
2893;DHT22;1456;51.840;12.184;2022-07-29T08:24:32;26.10;68.40
2893;DHT22;1456;51.840;12.184;2022-07-29T08:27:18;26.00;71.80
2893;DHT22;1456;51.840;12.184;2022-07-29T08:29:45;26.00;66.20
2893;DHT22;1456;51.840;12.184;2022-07-29T08:32:11;26.10;74.30
2893;DHT22;1456;51.840;12.184;2022-07-29T08:34:36;26.10;68.90
2893;DHT22;1456;51.840;12.184;2022-07-29T08:37:03;26.20;68.70
2893;DHT22;1456;51.840;12.184;2022-07-29T08:39:29;26.10;67.10
2893;DHT22;1456;51.840;12.184;2022-07-29T08:41:55;26.20;77.50
2893;DHT22;1456;51.840;12.184;2022-07-29T08:44:21;26.20;65.90
2893;DHT22;1456;51.840;12.184;2022-07-29T08:46:48;26.30;69.20
2893;DHT22;1456;51.840;12.184;2022-07-29T08:49:15;26.50;75.30
2893;DHT22;1456;51.840;12.184;2022-07-29T08:51:41;26.70;76.60
2893;DHT22;1456;51.840;12.184;2022-07-29T08:54:08;27.00;71.60
2893;DHT22;1456;51.840;12.184;2022-07-29T08:56:34;27.30;70.70
2893;DHT22;1456;51.840;12.184;2022-07-29T08:59:03;27.60;71.80
2893;DHT22;1456;51.840;12.184;2022-07-29T09:01:32;27.90;71.60
2893;DHT22;1456;51.840;12.184;2022-07-29T09:04:02;28.00;65.60
2893;DHT22;1456;51.840;12.184;2022-07-29T09:06:31;27.90;63.90
2893;DHT22;1456;51.840;12.184;2022-07-29T09:09:00;27.80;70.50
2893;DHT22;1456;51.840;12.184;2022-07-29T09:11:26;28.00;75.20
2893;DHT22;1456;51.840;12.184;2022-07-29T09:13:52;28.40;66.10
2893;DHT22;1456;51.840;12.184;2022-07-29T09:16:18;28.50;62.90
2893;DHT22;1456;51.840;12.184;2022-07-29T09:18:45;28.60;62.70
2893;DHT22;1456;51.840;12.184;2022-07-29T09:21:14;28.80;65.00
2893;DHT22;1456;51.840;12.184;2022-07-29T09:26:34;29.00;62.70
2893;DHT22;1456;51.840;12.184;2022-07-29T09:29:08;29.10;58.60
2893;DHT22;1456;51.840;12.184;2022-07-29T09:31:36;29.00;57.10
2893;DHT22;1456;51.840;12.184;2022-07-29T09:34:02;28.90;61.10
2893;DHT22;1456;51.840;12.184;2022-07-29T09:36:28;29.10;62.20
2893;DHT22;1456;51.840;12.184;2022-07-29T09:38:59;29.30;65.80
2893;DHT22;1456;51.840;12.184;2022-07-29T09:41:26;29.50;59.50
2893;DHT22;1456;51.840;12.184;2022-07-29T09:43:57;30.00;68.00
2893;DHT22;1456;51.840;12.184;2022-07-29T09:46:24;30.30;62.10
2893;DHT22;1456;51.840;12.184;2022-07-29T09:49:10;30.40;63.90
2893;DHT22;1456;51.840;12.184;2022-07-29T09:51:36;30.40;56.00
2893;DHT22;1456;51.840;12.184;2022-07-29T09:54:24;30.30;57.00
2893;DHT22;1456;51.840;12.184;2022-07-29T09:56:51;30.20;59.90
2893;DHT22;1456;51.840;12.184;2022-07-29T09:59:19;30.40;55.50
2893;DHT22;1456;51.840;12.184;2022-07-29T10:01:48;30.60;58.00
2893;DHT22;1456;51.840;12.184;2022-07-29T10:04:15;30.90;63.40
2893;DHT22;1456;51.840;12.184;2022-07-29T10:07:08;31.30;55.40
2893;DHT22;1456;51.840;12.184;2022-07-29T10:09:34;32.00;55.20
2893;DHT22;1456;51.840;12.184;2022-07-29T10:14:31;32.90;54.50
2893;DHT22;1456;51.840;12.184;2022-07-29T10:17:00;33.00;54.80
2893;DHT22;1456;51.840;12.184;2022-07-29T10:19:29;33.20;54.60
2893;DHT22;1456;51.840;12.184;2022-07-29T10:21:57;33.40;53.00
2893;DHT22;1456;51.840;12.184;2022-07-29T10:24:29;33.60;51.30
2893;DHT22;1456;51.840;12.184;2022-07-29T10:26:56;33.90;51.20
2893;DHT22;1456;51.840;12.184;2022-07-29T10:29:23;34.40;52.20
2893;DHT22;1456;51.840;12.184;2022-07-29T10:34:42;35.40;53.10
2893;DHT22;1456;51.840;12.184;2022-07-29T10:37:52;35.80;48.00
2893;DHT22;1456;51.840;12.184;2022-07-29T10:40:52;36.30;48.00
2893;DHT22;1456;51.840;12.184;2022-07-29T10:43:45;36.70;49.10
2893;DHT22;1456;51.840;12.184;2022-07-29T10:46:12;37.40;45.70
2893;DHT22;1456;51.840;12.184;2022-07-29T10:49:07;37.40;49.70
2893;DHT22;1456;51.840;12.184;2022-07-29T10:54:42;37.90;41.70
2893;DHT22;1456;51.840;12.184;2022-07-29T10:59:38;38.50;44.00
2893;DHT22;1456;51.840;12.184;2022-07-29T11:05:06;38.30;41.00
2893;DHT22;1456;51.840;12.184;2022-07-29T11:07:34;38.80;40.70
2893;DHT22;1456;51.840;12.184;2022-07-29T11:15:05;38.40;49.20
2893;DHT22;1456;51.840;12.184;2022-07-29T11:20:33;38.10;44.90
2893;DHT22;1456;51.840;12.184;2022-07-29T11:23:00;38.20;45.20
2893;DHT22;1456;51.840;12.184;2022-07-29T11:25:26;38.80;43.00
2893;DHT22;1456;51.840;12.184;2022-07-29T11:27:54;39.00;40.90
2893;DHT22;1456;51.840;12.184;2022-07-29T11:30:51;38.40;40.90
2893;DHT22;1456;51.840;12.184;2022-07-29T11:33:33;38.50;42.30
2893;DHT22;1456;51.840;12.184;2022-07-29T11:36:25;39.00;39.50
2893;DHT22;1456;51.840;12.184;2022-07-29T11:38:51;39.50;45.30
2893;DHT22;1456;51.840;12.184;2022-07-29T11:43:48;40.00;38.10
2893;DHT22;1456;51.840;12.184;2022-07-29T11:49:02;40.70;37.70
2893;DHT22;1456;51.840;12.184;2022-07-29T11:51:29;41.10;37.00
2893;DHT22;1456;51.840;12.184;2022-07-29T11:53:55;40.20;36.20
2893;DHT22;1456;51.840;12.184;2022-07-29T11:56:23;39.20;38.00
2893;DHT22;1456;51.840;12.184;2022-07-29T11:59:00;39.80;38.90
2893;DHT22;1456;51.840;12.184;2022-07-29T12:01:27;39.60;37.10
2893;DHT22;1456;51.840;12.184;2022-07-29T12:04:03;39.90;37.60
2893;DHT22;1456;51.840;12.184;2022-07-29T12:06:29;40.60;41.90
2893;DHT22;1456;51.840;12.184;2022-07-29T12:08:55;40.90;36.90
2893;DHT22;1456;51.840;12.184;2022-07-29T12:11:20;41.60;36.40
2893;DHT22;1456;51.840;12.184;2022-07-29T12:13:46;41.70;36.40
2893;DHT22;1456;51.840;12.184;2022-07-29T12:16:12;40.90;36.30
2893;DHT22;1456;51.840;12.184;2022-07-29T12:18:38;40.50;34.80
2893;DHT22;1456;51.840;12.184;2022-07-29T12:21:03;40.70;35.40
2893;DHT22;1456;51.840;12.184;2022-07-29T12:23:30;41.00;33.70
2893;DHT22;1456;51.840;12.184;2022-07-29T12:25:58;40.70;34.80
2893;DHT22;1456;51.840;12.184;2022-07-29T12:28:23;41.40;35.00
2893;DHT22;1456;51.840;12.184;2022-07-29T12:30:50;41.90;32.70
2893;DHT22;1456;51.840;12.184;2022-07-29T12:33:27;42.20;33.00
2893;DHT22;1456;51.840;12.184;2022-07-29T12:35:58;42.60;35.70
2893;DHT22;1456;51.840;12.184;2022-07-29T12:38:25;43.20;37.20
2893;DHT22;1456;51.840;12.184;2022-07-29T12:40:52;42.50;35.80
2893;DHT22;1456;51.840;12.184;2022-07-29T12:43:23;42.80;35.90
2893;DHT22;1456;51.840;12.184;2022-07-29T12:45:53;43.60;36.70
2893;DHT22;1456;51.840;12.184;2022-07-29T12:48:39;43.90;32.80
2893;DHT22;1456;51.840;12.184;2022-07-29T12:51:06;44.30;32.70
2893;DHT22;1456;51.840;12.184;2022-07-29T12:53:34;43.90;32.00
2893;DHT22;1456;51.840;12.184;2022-07-29T12:56:00;44.20;31.90
2893;DHT22;1456;51.840;12.184;2022-07-29T12:58:37;44.90;33.50
2893;DHT22;1456;51.840;12.184;2022-07-29T13:01:12;45.10;34.50
2893;DHT22;1456;51.840;12.184;2022-07-29T13:03:47;45.00;30.80
2893;DHT22;1456;51.840;12.184;2022-07-29T13:06:42;44.60;30.00
2893;DHT22;1456;51.840;12.184;2022-07-29T13:09:15;45.50;31.30
2893;DHT22;1456;51.840;12.184;2022-07-29T13:11:43;45.10;29.20
2893;DHT22;1456;51.840;12.184;2022-07-29T13:14:12;45.40;29.60
2893;DHT22;1456;51.840;12.184;2022-07-29T13:17:08;46.70;31.40
2893;DHT22;1456;51.840;12.184;2022-07-29T13:19:41;45.40;30.80
2893;DHT22;1456;51.840;12.184;2022-07-29T13:22:11;43.90;29.90
2893;DHT22;1456;51.840;12.184;2022-07-29T13:24:55;44.00;30.40
2893;DHT22;1456;51.840;12.184;2022-07-29T13:27:26;43.80;30.00
2893;DHT22;1456;51.840;12.184;2022-07-29T13:29:53;44.30;32.50
2893;DHT22;1456;51.840;12.184;2022-07-29T13:32:22;46.10;30.80
2893;DHT22;1456;51.840;12.184;2022-07-29T13:34:48;47.20;31.70
2893;DHT22;1456;51.840;12.184;2022-07-29T13:37:14;47.70;29.00
2893;DHT22;1456;51.840;12.184;2022-07-29T13:39:40;47.10;32.80
2893;DHT22;1456;51.840;12.184;2022-07-29T13:42:06;47.80;28.80
2893;DHT22;1456;51.840;12.184;2022-07-29T13:44:33;47.00;27.70
2893;DHT22;1456;51.840;12.184;2022-07-29T13:46:59;47.00;26.90
2893;DHT22;1456;51.840;12.184;2022-07-29T13:49:25;46.30;28.00
2893;DHT22;1456;51.840;12.184;2022-07-29T13:51:51;47.10;28.60
2893;DHT22;1456;51.840;12.184;2022-07-29T13:54:17;47.10;27.90
2893;DHT22;1456;51.840;12.184;2022-07-29T13:56:43;45.80;28.40
2893;DHT22;1456;51.840;12.184;2022-07-29T13:59:09;46.30;28.30
2893;DHT22;1456;51.840;12.184;2022-07-29T14:01:35;45.90;27.80
2893;DHT22;1456;51.840;12.184;2022-07-29T14:04:01;45.50;27.10
2893;DHT22;1456;51.840;12.184;2022-07-29T14:06:26;45.60;27.70
2893;DHT22;1456;51.840;12.184;2022-07-29T14:08:52;45.60;29.10
2893;DHT22;1456;51.840;12.184;2022-07-29T14:11:18;45.90;29.40
2893;DHT22;1456;51.840;12.184;2022-07-29T14:13:43;47.10;30.50
2893;DHT22;1456;51.840;12.184;2022-07-29T14:16:09;47.40;32.80
2893;DHT22;1456;51.840;12.184;2022-07-29T14:18:35;48.00;29.60
2893;DHT22;1456;51.840;12.184;2022-07-29T14:21:01;47.80;30.00
2893;DHT22;1456;51.840;12.184;2022-07-29T14:23:27;47.50;29.60
2893;DHT22;1456;51.840;12.184;2022-07-29T14:25:52;47.50;28.40
2893;DHT22;1456;51.840;12.184;2022-07-29T14:28:18;47.50;27.10
2893;DHT22;1456;51.840;12.184;2022-07-29T14:30:44;46.80;28.50
2893;DHT22;1456;51.840;12.184;2022-07-29T14:33:09;47.60;29.50
2893;DHT22;1456;51.840;12.184;2022-07-29T14:35:35;48.00;28.30
2893;DHT22;1456;51.840;12.184;2022-07-29T14:38:01;48.30;29.10
2893;DHT22;1456;51.840;12.184;2022-07-29T14:40:26;48.60;27.70
2893;DHT22;1456;51.840;12.184;2022-07-29T14:42:52;48.10;28.00
2893;DHT22;1456;51.840;12.184;2022-07-29T14:45:18;47.90;26.80
2893;DHT22;1456;51.840;12.184;2022-07-29T14:47:44;47.70;27.30
2893;DHT22;1456;51.840;12.184;2022-07-29T14:50:10;47.70;26.70
2893;DHT22;1456;51.840;12.184;2022-07-29T14:52:36;47.70;28.50
2893;DHT22;1456;51.840;12.184;2022-07-29T14:55:02;48.10;29.50
2893;DHT22;1456;51.840;12.184;2022-07-29T14:57:28;48.30;28.80
2893;DHT22;1456;51.840;12.184;2022-07-29T14:59:54;48.10;26.80
2893;DHT22;1456;51.840;12.184;2022-07-29T15:02:20;46.40;26.60
2893;DHT22;1456;51.840;12.184;2022-07-29T15:04:46;45.30;27.60
2893;DHT22;1456;51.840;12.184;2022-07-29T15:07:14;44.90;28.90
2893;DHT22;1456;51.840;12.184;2022-07-29T15:09:39;43.00;29.10
2893;DHT22;1456;51.840;12.184;2022-07-29T15:12:06;43.80;28.90
2893;DHT22;1456;51.840;12.184;2022-07-29T15:14:32;44.70;27.80
2893;DHT22;1456;51.840;12.184;2022-07-29T15:16:57;46.40;28.80
2893;DHT22;1456;51.840;12.184;2022-07-29T15:19:23;48.00;27.30
2893;DHT22;1456;51.840;12.184;2022-07-29T15:21:49;48.40;29.50
2893;DHT22;1456;51.840;12.184;2022-07-29T15:24:18;48.90;26.40
2893;DHT22;1456;51.840;12.184;2022-07-29T15:26:45;49.10;27.70
2893;DHT22;1456;51.840;12.184;2022-07-29T15:29:11;49.50;25.90
2893;DHT22;1456;51.840;12.184;2022-07-29T15:31:36;49.10;25.80
2893;DHT22;1456;51.840;12.184;2022-07-29T15:34:02;49.30;26.00
2893;DHT22;1456;51.840;12.184;2022-07-29T15:36:28;49.30;26.60
2893;DHT22;1456;51.840;12.184;2022-07-29T15:38:54;49.90;27.00
2893;DHT22;1456;51.840;12.184;2022-07-29T15:41:20;49.90;26.50
2893;DHT22;1456;51.840;12.184;2022-07-29T15:43:46;48.10;24.80
2893;DHT22;1456;51.840;12.184;2022-07-29T15:46:17;47.70;25.40
2893;DHT22;1456;51.840;12.184;2022-07-29T15:49:04;48.40;27.40
2893;DHT22;1456;51.840;12.184;2022-07-29T15:51:30;49.10;25.80
2893;DHT22;1456;51.840;12.184;2022-07-29T15:53:56;48.20;28.90
2893;DHT22;1456;51.840;12.184;2022-07-29T15:56:22;47.40;26.90
2893;DHT22;1456;51.840;12.184;2022-07-29T15:58:48;46.80;28.80
2893;DHT22;1456;51.840;12.184;2022-07-29T16:01:15;46.30;25.70
2893;DHT22;1456;51.840;12.184;2022-07-29T16:03:40;46.30;28.80
2893;DHT22;1456;51.840;12.184;2022-07-29T16:06:06;44.20;28.60
2893;DHT22;1456;51.840;12.184;2022-07-29T16:08:32;42.20;28.70
2893;DHT22;1456;51.840;12.184;2022-07-29T16:10:58;40.90;29.10
2893;DHT22;1456;51.840;12.184;2022-07-29T16:13:23;40.70;31.80
2893;DHT22;1456;51.840;12.184;2022-07-29T16:15:49;40.80;29.40
2893;DHT22;1456;51.840;12.184;2022-07-29T16:18:15;41.10;29.30
2893;DHT22;1456;51.840;12.184;2022-07-29T16:20:41;42.80;30.20
2893;DHT22;1456;51.840;12.184;2022-07-29T16:23:07;44.20;28.90
2893;DHT22;1456;51.840;12.184;2022-07-29T16:25:38;44.10;29.20
2893;DHT22;1456;51.840;12.184;2022-07-29T16:28:04;42.40;28.90
2893;DHT22;1456;51.840;12.184;2022-07-29T16:30:30;40.90;30.30
2893;DHT22;1456;51.840;12.184;2022-07-29T16:32:56;39.90;30.30
2893;DHT22;1456;51.840;12.184;2022-07-29T16:35:22;38.10;31.30